Terminal Aerodrome Forecast
Issued by NWS

Home | Current Version | Previous Version | Text Only | Print | Product List | Glossary On
Versions: 1 2 3 4 5 6 7 8 9 10 11 12 13 14 15 16 17 18 19 20 21 22 23 24 25 26 27 28 29 30 31 32
336
FTAK31 PANC 161740
TAFACD
TAF
PACD 161740Z 1618/1718 24015KT P6SM -RA SCT025 OVC035
     FM162000 28015G25KT 6SM -RA SCT015 BKN025
     FM170200 28015KT P6SM -RA BKN025 OVC035
     FM170800 28020G30KT 5SM -RA BR SCT007 OVC015=

USA.gov is the U.S. government's official web portal to all federal, state and local government web resources and services.